sensor_id;sensor_type;location;lat;lon;timestamp;P1;durP1;ratioP1;P2;durP2;ratioP2
7383;SDS011;3733;47.994;8.820;2023-10-31T00:00:15;2.00;;;1.30;;
7383;SDS011;3733;47.994;8.820;2023-10-31T00:02:41;1.40;;;1.30;;
7383;SDS011;3733;47.994;8.820;2023-10-31T00:05:07;1.40;;;1.30;;
7383;SDS011;3733;47.994;8.820;2023-10-31T00:07:32;1.83;;;1.10;;
7383;SDS011;3733;47.994;8.820;2023-10-31T00:09:58;4.00;;;1.20;;
7383;SDS011;3733;47.994;8.820;2023-10-31T00:12:24;1.20;;;1.10;;
7383;SDS011;3733;47.994;8.820;2023-10-31T00:14:49;2.70;;;1.20;;
7383;SDS011;3733;47.994;8.820;2023-10-31T00:17:15;0.90;;;0.90;;
7383;SDS011;3733;47.994;8.820;2023-10-31T00:19:40;1.30;;;1.20;;
7383;SDS011;3733;47.994;8.820;2023-10-31T00:22:06;1.20;;;1.10;;
7383;SDS011;3733;47.994;8.820;2023-10-31T00:24:31;6.33;;;1.33;;
7383;SDS011;3733;47.994;8.820;2023-10-31T00:26:57;2.40;;;1.10;;
7383;SDS011;3733;47.994;8.820;2023-10-31T00:29:23;1.20;;;1.10;;
7383;SDS011;3733;47.994;8.820;2023-10-31T00:31:49;1.10;;;1.00;;
7383;SDS011;3733;47.994;8.820;2023-10-31T00:34:15;0.93;;;0.87;;
7383;SDS011;3733;47.994;8.820;2023-10-31T00:36:40;1.00;;;1.00;;
7383;SDS011;3733;47.994;8.820;2023-10-31T00:39:06;1.27;;;1.17;;
7383;SDS011;3733;47.994;8.820;2023-10-31T00:41:31;1.43;;;1.33;;
7383;SDS011;3733;47.994;8.820;2023-10-31T00:43:57;1.27;;;1.17;;
7383;SDS011;3733;47.994;8.820;2023-10-31T00:46:23;4.07;;;1.30;;
7383;SDS011;3733;47.994;8.820;2023-10-31T00:48:48;1.60;;;1.23;;
7383;SDS011;3733;47.994;8.820;2023-10-31T00:51:14;1.30;;;1.20;;
7383;SDS011;3733;47.994;8.820;2023-10-31T00:53:39;1.17;;;1.10;;
7383;SDS011;3733;47.994;8.820;2023-10-31T00:56:05;2.17;;;1.70;;
7383;SDS011;3733;47.994;8.820;2023-10-31T00:58:31;1.37;;;1.27;;
7383;SDS011;3733;47.994;8.820;2023-10-31T01:00:57;1.40;;;1.30;;
7383;SDS011;3733;47.994;8.820;2023-10-31T01:03:23;2.77;;;1.30;;
7383;SDS011;3733;47.994;8.820;2023-10-31T01:05:48;1.30;;;1.20;;
7383;SDS011;3733;47.994;8.820;2023-10-31T01:08:14;1.30;;;1.20;;
7383;SDS011;3733;47.994;8.820;2023-10-31T01:10:40;1.30;;;1.20;;
7383;SDS011;3733;47.994;8.820;2023-10-31T01:13:06;2.23;;;1.30;;
7383;SDS011;3733;47.994;8.820;2023-10-31T01:15:31;2.37;;;1.20;;
7383;SDS011;3733;47.994;8.820;2023-10-31T01:17:57;1.27;;;1.17;;
7383;SDS011;3733;47.994;8.820;2023-10-31T01:20:23;1.60;;;1.17;;
7383;SDS011;3733;47.994;8.820;2023-10-31T01:22:48;3.70;;;1.07;;
7383;SDS011;3733;47.994;8.820;2023-10-31T01:25:14;1.93;;;1.20;;
7383;SDS011;3733;47.994;8.820;2023-10-31T01:27:40;1.40;;;1.30;;
7383;SDS011;3733;47.994;8.820;2023-10-31T01:30:07;1.00;;;1.00;;
7383;SDS011;3733;47.994;8.820;2023-10-31T01:32:33;1.23;;;1.20;;
7383;SDS011;3733;47.994;8.820;2023-10-31T01:34:58;1.33;;;1.23;;
7383;SDS011;3733;47.994;8.820;2023-10-31T01:37:24;1.43;;;1.33;;
7383;SDS011;3733;47.994;8.820;2023-10-31T01:39:49;1.30;;;1.20;;
7383;SDS011;3733;47.994;8.820;2023-10-31T01:42:15;1.40;;;1.30;;
7383;SDS011;3733;47.994;8.820;2023-10-31T01:44:41;1.13;;;1.03;;
7383;SDS011;3733;47.994;8.820;2023-10-31T01:47:07;1.23;;;0.97;;
7383;SDS011;3733;47.994;8.820;2023-10-31T01:49:34;4.67;;;1.33;;
7383;SDS011;3733;47.994;8.820;2023-10-31T01:52:03;1.83;;;1.30;;
7383;SDS011;3733;47.994;8.820;2023-10-31T01:54:29;1.27;;;1.17;;
7383;SDS011;3733;47.994;8.820;2023-10-31T01:56:55;1.10;;;1.00;;
7383;SDS011;3733;47.994;8.820;2023-10-31T01:59:24;1.20;;;1.10;;
7383;SDS011;3733;47.994;8.820;2023-10-31T02:01:50;1.60;;;1.10;;
7383;SDS011;3733;47.994;8.820;2023-10-31T02:04:15;0.90;;;0.90;;
7383;SDS011;3733;47.994;8.820;2023-10-31T02:06:41;1.57;;;1.10;;
7383;SDS011;3733;47.994;8.820;2023-10-31T02:09:07;1.20;;;1.10;;
7383;SDS011;3733;47.994;8.820;2023-10-31T02:11:32;1.70;;;1.10;;
7383;SDS011;3733;47.994;8.820;2023-10-31T02:13:58;1.30;;;1.20;;
7383;SDS011;3733;47.994;8.820;2023-10-31T02:16:23;2.63;;;1.30;;
7383;SDS011;3733;47.994;8.820;2023-10-31T02:18:50;1.37;;;1.00;;
7383;SDS011;3733;47.994;8.820;2023-10-31T02:21:16;1.20;;;0.90;;
7383;SDS011;3733;47.994;8.820;2023-10-31T02:23:57;1.07;;;1.07;;
7383;SDS011;3733;47.994;8.820;2023-10-31T02:26:28;2.20;;;1.10;;
7383;SDS011;3733;47.994;8.820;2023-10-31T02:28:55;1.47;;;1.00;;
7383;SDS011;3733;47.994;8.820;2023-10-31T02:31:20;1.63;;;1.10;;
7383;SDS011;3733;47.994;8.820;2023-10-31T02:33:46;3.63;;;1.37;;
7383;SDS011;3733;47.994;8.820;2023-10-31T02:36:11;1.10;;;1.10;;
7383;SDS011;3733;47.994;8.820;2023-10-31T02:38:37;1.00;;;1.00;;
7383;SDS011;3733;47.994;8.820;2023-10-31T02:41:03;1.50;;;1.40;;
7383;SDS011;3733;47.994;8.820;2023-10-31T02:43:28;1.27;;;1.17;;
7383;SDS011;3733;47.994;8.820;2023-10-31T02:45:54;2.70;;;1.30;;
7383;SDS011;3733;47.994;8.820;2023-10-31T02:48:19;1.30;;;1.10;;
7383;SDS011;3733;47.994;8.820;2023-10-31T02:50:45;1.00;;;1.00;;
7383;SDS011;3733;47.994;8.820;2023-10-31T02:53:11;3.47;;;1.13;;
7383;SDS011;3733;47.994;8.820;2023-10-31T02:55:36;1.00;;;1.00;;
7383;SDS011;3733;47.994;8.820;2023-10-31T02:58:02;4.40;;;1.10;;
7383;SDS011;3733;47.994;8.820;2023-10-31T03:00:28;2.20;;;1.23;;
7383;SDS011;3733;47.994;8.820;2023-10-31T03:02:53;1.97;;;1.40;;
7383;SDS011;3733;47.994;8.820;2023-10-31T03:05:19;2.00;;;0.97;;
7383;SDS011;3733;47.994;8.820;2023-10-31T03:07:45;2.30;;;0.87;;
7383;SDS011;3733;47.994;8.820;2023-10-31T03:10:10;2.80;;;1.20;;
7383;SDS011;3733;47.994;8.820;2023-10-31T03:12:36;2.27;;;1.10;;
7383;SDS011;3733;47.994;8.820;2023-10-31T03:15:02;2.47;;;1.00;;
7383;SDS011;3733;47.994;8.820;2023-10-31T03:17:28;1.67;;;1.23;;
7383;SDS011;3733;47.994;8.820;2023-10-31T03:19:55;2.80;;;1.10;;
7383;SDS011;3733;47.994;8.820;2023-10-31T03:22:20;3.47;;;1.30;;
7383;SDS011;3733;47.994;8.820;2023-10-31T03:24:46;2.60;;;1.00;;
7383;SDS011;3733;47.994;8.820;2023-10-31T03:27:12;2.63;;;1.20;;
7383;SDS011;3733;47.994;8.820;2023-10-31T03:29:37;2.50;;;1.17;;
7383;SDS011;3733;47.994;8.820;2023-10-31T03:32:03;1.30;;;1.07;;
7383;SDS011;3733;47.994;8.820;2023-10-31T03:34:30;1.50;;;1.23;;
7383;SDS011;3733;47.994;8.820;2023-10-31T03:36:55;1.60;;;1.50;;
7383;SDS011;3733;47.994;8.820;2023-10-31T03:39:21;1.10;;;1.00;;
7383;SDS011;3733;47.994;8.820;2023-10-31T03:41:47;1.70;;;1.17;;
7383;SDS011;3733;47.994;8.820;2023-10-31T03:44:12;1.30;;;1.20;;
7383;SDS011;3733;47.994;8.820;2023-10-31T03:46:38;1.00;;;1.00;;
7383;SDS011;3733;47.994;8.820;2023-10-31T03:49:04;1.20;;;1.10;;
7383;SDS011;3733;47.994;8.820;2023-10-31T03:51:32;1.10;;;1.10;;
7383;SDS011;3733;47.994;8.820;2023-10-31T03:53:58;6.30;;;1.20;;
7383;SDS011;3733;47.994;8.820;2023-10-31T03:56:23;1.23;;;1.10;;
7383;SDS011;3733;47.994;8.820;2023-10-31T03:58:49;1.67;;;1.30;;
7383;SDS011;3733;47.994;8.820;2023-10-31T04:01:15;3.17;;;1.10;;
7383;SDS011;3733;47.994;8.820;2023-10-31T04:03:40;2.30;;;1.20;;
7383;SDS011;3733;47.994;8.820;2023-10-31T04:06:06;2.20;;;0.83;;
7383;SDS011;3733;47.994;8.820;2023-10-31T04:08:31;1.00;;;0.90;;
7383;SDS011;3733;47.994;8.820;2023-10-31T04:10:57;1.53;;;1.00;;
7383;SDS011;3733;47.994;8.820;2023-10-31T04:13:23;0.90;;;0.90;;
7383;SDS011;3733;47.994;8.820;2023-10-31T04:15:48;1.70;;;1.20;;
7383;SDS011;3733;47.994;8.820;2023-10-31T04:18:14;1.67;;;1.30;;
7383;SDS011;3733;47.994;8.820;2023-10-31T04:20:39;1.17;;;1.00;;
7383;SDS011;3733;47.994;8.820;2023-10-31T04:23:05;1.40;;;1.10;;
7383;SDS011;3733;47.994;8.820;2023-10-31T04:25:31;0.80;;;0.80;;
7383;SDS011;3733;47.994;8.820;2023-10-31T04:27:57;6.10;;;1.27;;
7383;SDS011;3733;47.994;8.820;2023-10-31T04:30:23;1.40;;;1.30;;
7383;SDS011;3733;47.994;8.820;2023-10-31T04:32:48;1.17;;;1.00;;
7383;SDS011;3733;47.994;8.820;2023-10-31T04:35:14;9.50;;;5.00;;
7383;SDS011;3733;47.994;8.820;2023-10-31T04:37:39;1.53;;;1.40;;
7383;SDS011;3733;47.994;8.820;2023-10-31T04:40:05;2.03;;;1.13;;
7383;SDS011;3733;47.994;8.820;2023-10-31T04:42:31;0.90;;;0.90;;
7383;SDS011;3733;47.994;8.820;2023-10-31T04:44:58;1.20;;;1.03;;
7383;SDS011;3733;47.994;8.820;2023-10-31T04:47:24;0.90;;;0.90;;
7383;SDS011;3733;47.994;8.820;2023-10-31T04:49:50;1.90;;;1.50;;
7383;SDS011;3733;47.994;8.820;2023-10-31T04:52:16;1.30;;;1.20;;
7383;SDS011;3733;47.994;8.820;2023-10-31T04:54:42;4.60;;;1.20;;
7383;SDS011;3733;47.994;8.820;2023-10-31T04:57:07;1.40;;;1.30;;
7383;SDS011;3733;47.994;8.820;2023-10-31T04:59:33;3.90;;;1.60;;
7383;SDS011;3733;47.994;8.820;2023-10-31T05:01:59;1.10;;;1.10;;
7383;SDS011;3733;47.994;8.820;2023-10-31T05:04:24;1.47;;;1.10;;
7383;SDS011;3733;47.994;8.820;2023-10-31T05:06:50;2.10;;;1.10;;
7383;SDS011;3733;47.994;8.820;2023-10-31T05:09:15;1.27;;;0.93;;
7383;SDS011;3733;47.994;8.820;2023-10-31T05:11:42;1.10;;;1.00;;
7383;SDS011;3733;47.994;8.820;2023-10-31T05:14:08;4.00;;;1.13;;
7383;SDS011;3733;47.994;8.820;2023-10-31T05:16:39;3.77;;;1.13;;
7383;SDS011;3733;47.994;8.820;2023-10-31T05:19:05;2.47;;;1.20;;
7383;SDS011;3733;47.994;8.820;2023-10-31T05:21:31;0.97;;;0.97;;
7383;SDS011;3733;47.994;8.820;2023-10-31T05:23:57;1.77;;;1.40;;
7383;SDS011;3733;47.994;8.820;2023-10-31T05:26:22;2.30;;;1.03;;
7383;SDS011;3733;47.994;8.820;2023-10-31T05:28:48;2.00;;;1.27;;
7383;SDS011;3733;47.994;8.820;2023-10-31T05:31:15;2.60;;;1.60;;
7383;SDS011;3733;47.994;8.820;2023-10-31T05:33:40;2.13;;;1.30;;
7383;SDS011;3733;47.994;8.820;2023-10-31T05:36:06;3.43;;;1.67;;
7383;SDS011;3733;47.994;8.820;2023-10-31T05:38:52;1.13;;;1.00;;
7383;SDS011;3733;47.994;8.820;2023-10-31T05:41:18;2.17;;;1.97;;
7383;SDS011;3733;47.994;8.820;2023-10-31T05:43:44;3.00;;;2.10;;
7383;SDS011;3733;47.994;8.820;2023-10-31T05:46:10;4.50;;;1.50;;
7383;SDS011;3733;47.994;8.820;2023-10-31T05:48:39;1.20;;;1.10;;
7383;SDS011;3733;47.994;8.820;2023-10-31T05:51:14;1.77;;;1.00;;
7383;SDS011;3733;47.994;8.820;2023-10-31T05:53:41;1.63;;;1.20;;
7383;SDS011;3733;47.994;8.820;2023-10-31T05:56:08;1.47;;;1.23;;
7383;SDS011;3733;47.994;8.820;2023-10-31T05:58:34;1.67;;;1.10;;
7383;SDS011;3733;47.994;8.820;2023-10-31T06:01:00;2.43;;;1.40;;
7383;SDS011;3733;47.994;8.820;2023-10-31T06:03:26;1.57;;;1.23;;
7383;SDS011;3733;47.994;8.820;2023-10-31T06:05:51;3.63;;;1.27;;
7383;SDS011;3733;47.994;8.820;2023-10-31T06:08:17;2.83;;;1.60;;
7383;SDS011;3733;47.994;8.820;2023-10-31T06:10:43;4.30;;;2.00;;
7383;SDS011;3733;47.994;8.820;2023-10-31T06:13:08;3.70;;;2.13;;
7383;SDS011;3733;47.994;8.820;2023-10-31T06:15:34;4.87;;;2.20;;
7383;SDS011;3733;47.994;8.820;2023-10-31T06:17:59;2.17;;;1.97;;
7383;SDS011;3733;47.994;8.820;2023-10-31T06:20:25;2.63;;;2.20;;
7383;SDS011;3733;47.994;8.820;2023-10-31T06:22:51;6.80;;;3.00;;
7383;SDS011;3733;47.994;8.820;2023-10-31T06:25:17;4.23;;;2.83;;
7383;SDS011;3733;47.994;8.820;2023-10-31T06:27:42;2.60;;;1.60;;
7383;SDS011;3733;47.994;8.820;2023-10-31T06:30:08;2.20;;;1.60;;
7383;SDS011;3733;47.994;8.820;2023-10-31T06:32:35;2.40;;;1.60;;
7383;SDS011;3733;47.994;8.820;2023-10-31T06:35:01;2.70;;;1.57;;
7383;SDS011;3733;47.994;8.820;2023-10-31T06:37:27;1.63;;;1.53;;
7383;SDS011;3733;47.994;8.820;2023-10-31T06:39:53;3.03;;;1.53;;
7383;SDS011;3733;47.994;8.820;2023-10-31T06:42:18;4.70;;;1.83;;
7383;SDS011;3733;47.994;8.820;2023-10-31T06:44:44;2.07;;;1.63;;
7383;SDS011;3733;47.994;8.820;2023-10-31T06:47:09;3.83;;;2.13;;
7383;SDS011;3733;47.994;8.820;2023-10-31T06:49:35;7.80;;;2.37;;
7383;SDS011;3733;47.994;8.820;2023-10-31T06:52:01;3.13;;;1.87;;
7383;SDS011;3733;47.994;8.820;2023-10-31T06:54:27;5.93;;;1.90;;
7383;SDS011;3733;47.994;8.820;2023-10-31T06:56:53;3.03;;;1.63;;
7383;SDS011;3733;47.994;8.820;2023-10-31T06:59:19;4.47;;;1.80;;
7383;SDS011;3733;47.994;8.820;2023-10-31T07:01:44;5.67;;;2.20;;
7383;SDS011;3733;47.994;8.820;2023-10-31T07:04:11;2.50;;;1.70;;
7383;SDS011;3733;47.994;8.820;2023-10-31T07:06:37;4.83;;;2.00;;
7383;SDS011;3733;47.994;8.820;2023-10-31T07:09:02;3.70;;;1.93;;
7383;SDS011;3733;47.994;8.820;2023-10-31T07:11:30;2.90;;;1.87;;
7383;SDS011;3733;47.994;8.820;2023-10-31T07:13:59;4.93;;;2.33;;
7383;SDS011;3733;47.994;8.820;2023-10-31T07:16:27;2.90;;;1.60;;
7383;SDS011;3733;47.994;8.820;2023-10-31T07:18:53;8.33;;;1.90;;
7383;SDS011;3733;47.994;8.820;2023-10-31T07:21:18;5.23;;;1.60;;
7383;SDS011;3733;47.994;8.820;2023-10-31T07:23:44;2.20;;;1.53;;
7383;SDS011;3733;47.994;8.820;2023-10-31T07:26:09;5.57;;;2.00;;
7383;SDS011;3733;47.994;8.820;2023-10-31T07:28:35;3.90;;;1.77;;
7383;SDS011;3733;47.994;8.820;2023-10-31T07:31:01;4.03;;;1.77;;
7383;SDS011;3733;47.994;8.820;2023-10-31T07:33:27;4.23;;;1.80;;
7383;SDS011;3733;47.994;8.820;2023-10-31T07:35:53;3.13;;;2.07;;
7383;SDS011;3733;47.994;8.820;2023-10-31T07:38:18;5.53;;;2.50;;
7383;SDS011;3733;47.994;8.820;2023-10-31T07:40:44;7.00;;;3.80;;
7383;SDS011;3733;47.994;8.820;2023-10-31T07:43:09;9.43;;;4.00;;
7383;SDS011;3733;47.994;8.820;2023-10-31T07:45:35;5.67;;;2.90;;
7383;SDS011;3733;47.994;8.820;2023-10-31T07:48:01;8.93;;;2.97;;
7383;SDS011;3733;47.994;8.820;2023-10-31T07:50:26;8.40;;;4.10;;
7383;SDS011;3733;47.994;8.820;2023-10-31T07:52:52;14.07;;;4.20;;
7383;SDS011;3733;47.994;8.820;2023-10-31T07:55:18;12.77;;;3.67;;
7383;SDS011;3733;47.994;8.820;2023-10-31T07:57:44;6.97;;;3.90;;
7383;SDS011;3733;47.994;8.820;2023-10-31T08:00:13;3.97;;;2.73;;
7383;SDS011;3733;47.994;8.820;2023-10-31T08:02:39;10.00;;;3.67;;
7383;SDS011;3733;47.994;8.820;2023-10-31T08:05:05;10.73;;;3.90;;
7383;SDS011;3733;47.994;8.820;2023-10-31T08:07:32;6.47;;;3.10;;
7383;SDS011;3733;47.994;8.820;2023-10-31T08:09:57;5.07;;;3.00;;
7383;SDS011;3733;47.994;8.820;2023-10-31T08:12:23;4.20;;;2.13;;
7383;SDS011;3733;47.994;8.820;2023-10-31T08:14:49;7.43;;;2.50;;
7383;SDS011;3733;47.994;8.820;2023-10-31T08:17:15;5.63;;;2.27;;
7383;SDS011;3733;47.994;8.820;2023-10-31T08:19:40;5.37;;;2.93;;
7383;SDS011;3733;47.994;8.820;2023-10-31T08:22:07;9.80;;;2.90;;
7383;SDS011;3733;47.994;8.820;2023-10-31T08:24:33;9.20;;;2.30;;
7383;SDS011;3733;47.994;8.820;2023-10-31T08:27:01;10.27;;;3.13;;
7383;SDS011;3733;47.994;8.820;2023-10-31T08:29:27;3.83;;;2.13;;
7383;SDS011;3733;47.994;8.820;2023-10-31T08:31:52;8.90;;;2.50;;
7383;SDS011;3733;47.994;8.820;2023-10-31T08:34:18;4.73;;;2.50;;
7383;SDS011;3733;47.994;8.820;2023-10-31T08:36:44;7.13;;;3.20;;
7383;SDS011;3733;47.994;8.820;2023-10-31T08:39:09;4.90;;;2.50;;
7383;SDS011;3733;47.994;8.820;2023-10-31T08:41:35;5.23;;;2.47;;
7383;SDS011;3733;47.994;8.820;2023-10-31T08:44:02;7.63;;;2.63;;
7383;SDS011;3733;47.994;8.820;2023-10-31T08:46:28;6.70;;;1.83;;
7383;SDS011;3733;47.994;8.820;2023-10-31T08:48:54;6.57;;;2.20;;
7383;SDS011;3733;47.994;8.820;2023-10-31T08:51:19;4.37;;;1.77;;
7383;SDS011;3733;47.994;8.820;2023-10-31T08:53:45;8.03;;;2.07;;
7383;SDS011;3733;47.994;8.820;2023-10-31T08:56:10;3.00;;;1.83;;
7383;SDS011;3733;47.994;8.820;2023-10-31T08:58:36;6.97;;;3.30;;
7383;SDS011;3733;47.994;8.820;2023-10-31T09:01:02;4.03;;;2.37;;
7383;SDS011;3733;47.994;8.820;2023-10-31T09:03:27;3.13;;;2.23;;
7383;SDS011;3733;47.994;8.820;2023-10-31T09:05:53;6.50;;;2.50;;
7383;SDS011;3733;47.994;8.820;2023-10-31T09:08:19;7.97;;;2.00;;
7383;SDS011;3733;47.994;8.820;2023-10-31T09:10:44;5.70;;;2.20;;
7383;SDS011;3733;47.994;8.820;2023-10-31T09:13:11;5.30;;;1.90;;
7383;SDS011;3733;47.994;8.820;2023-10-31T09:15:37;3.97;;;1.73;;
7383;SDS011;3733;47.994;8.820;2023-10-31T09:18:03;6.10;;;1.60;;
7383;SDS011;3733;47.994;8.820;2023-10-31T09:20:29;4.60;;;1.77;;
7383;SDS011;3733;47.994;8.820;2023-10-31T09:22:55;5.87;;;1.87;;
7383;SDS011;3733;47.994;8.820;2023-10-31T09:25:21;2.00;;;1.60;;
7383;SDS011;3733;47.994;8.820;2023-10-31T09:27:46;6.83;;;1.93;;
7383;SDS011;3733;47.994;8.820;2023-10-31T09:30:12;5.40;;;1.87;;
7383;SDS011;3733;47.994;8.820;2023-10-31T09:32:38;2.03;;;1.80;;
7383;SDS011;3733;47.994;8.820;2023-10-31T09:35:04;3.83;;;1.57;;
7383;SDS011;3733;47.994;8.820;2023-10-31T09:37:30;3.60;;;1.60;;
7383;SDS011;3733;47.994;8.820;2023-10-31T09:39:56;3.90;;;1.60;;
7383;SDS011;3733;47.994;8.820;2023-10-31T09:42:21;3.80;;;1.50;;
7383;SDS011;3733;47.994;8.820;2023-10-31T09:44:47;3.07;;;1.90;;
7383;SDS011;3733;47.994;8.820;2023-10-31T09:47:13;2.87;;;1.70;;
7383;SDS011;3733;47.994;8.820;2023-10-31T09:49:40;2.80;;;1.50;;
7383;SDS011;3733;47.994;8.820;2023-10-31T09:52:06;2.67;;;1.60;;
7383;SDS011;3733;47.994;8.820;2023-10-31T09:54:32;2.03;;;1.73;;
7383;SDS011;3733;47.994;8.820;2023-10-31T09:56:59;4.40;;;2.00;;
7383;SDS011;3733;47.994;8.820;2023-10-31T09:59:24;1.63;;;1.53;;
7383;SDS011;3733;47.994;8.820;2023-10-31T10:01:50;2.47;;;1.73;;
7383;SDS011;3733;47.994;8.820;2023-10-31T10:04:16;1.93;;;1.43;;
7383;SDS011;3733;47.994;8.820;2023-10-31T10:06:58;4.57;;;1.30;;
7383;SDS011;3733;47.994;8.820;2023-10-31T10:09:25;5.40;;;1.63;;
7383;SDS011;3733;47.994;8.820;2023-10-31T10:11:52;1.40;;;1.30;;
7383;SDS011;3733;47.994;8.820;2023-10-31T10:14:18;1.37;;;1.27;;
7383;SDS011;3733;47.994;8.820;2023-10-31T10:16:44;1.40;;;1.30;;
7383;SDS011;3733;47.994;8.820;2023-10-31T10:24:20;2.83;;;1.30;;
7383;SDS011;3733;47.994;8.820;2023-10-31T10:26:46;1.80;;;1.20;;
7383;SDS011;3733;47.994;8.820;2023-10-31T10:29:12;2.10;;;1.30;;
7383;SDS011;3733;47.994;8.820;2023-10-31T10:31:39;1.33;;;1.17;;
7383;SDS011;3733;47.994;8.820;2023-10-31T10:34:05;3.70;;;1.53;;
7383;SDS011;3733;47.994;8.820;2023-10-31T10:36:32;7.13;;;2.37;;
7383;SDS011;3733;47.994;8.820;2023-10-31T10:38:59;2.37;;;1.70;;
7383;SDS011;3733;47.994;8.820;2023-10-31T10:41:28;3.33;;;1.60;;
7383;SDS011;3733;47.994;8.820;2023-10-31T10:44:01;1.83;;;1.50;;
7383;SDS011;3733;47.994;8.820;2023-10-31T10:46:32;2.33;;;1.10;;
7383;SDS011;3733;47.994;8.820;2023-10-31T10:48:59;2.10;;;1.40;;
7383;SDS011;3733;47.994;8.820;2023-10-31T10:51:45;3.53;;;1.20;;
7383;SDS011;3733;47.994;8.820;2023-10-31T10:57:38;2.60;;;1.10;;
7383;SDS011;3733;47.994;8.820;2023-10-31T11:00:09;3.20;;;1.20;;
7383;SDS011;3733;47.994;8.820;2023-10-31T11:02:39;4.17;;;1.20;;
7383;SDS011;3733;47.994;8.820;2023-10-31T11:05:08;2.20;;;1.10;;
7383;SDS011;3733;47.994;8.820;2023-10-31T11:07:34;2.57;;;1.00;;
7383;SDS011;3733;47.994;8.820;2023-10-31T11:10:02;2.10;;;1.23;;
7383;SDS011;3733;47.994;8.820;2023-10-31T11:12:30;3.07;;;1.23;;
7383;SDS011;3733;47.994;8.820;2023-10-31T11:14:59;9.33;;;1.37;;
7383;SDS011;3733;47.994;8.820;2023-10-31T11:17:28;1.40;;;1.30;;
7383;SDS011;3733;47.994;8.820;2023-10-31T11:19:59;2.23;;;1.57;;
7383;SDS011;3733;47.994;8.820;2023-10-31T11:22:36;3.27;;;1.53;;
7383;SDS011;3733;47.994;8.820;2023-10-31T11:25:09;4.27;;;1.37;;
7383;SDS011;3733;47.994;8.820;2023-10-31T11:27:35;2.57;;;0.97;;
7383;SDS011;3733;47.994;8.820;2023-10-31T11:30:04;1.37;;;1.13;;
7383;SDS011;3733;47.994;8.820;2023-10-31T11:32:31;3.00;;;1.20;;
7383;SDS011;3733;47.994;8.820;2023-10-31T11:34:59;1.07;;;0.97;;
7383;SDS011;3733;47.994;8.820;2023-10-31T11:37:35;1.87;;;0.90;;
7383;SDS011;3733;47.994;8.820;2023-10-31T11:42:43;2.40;;;1.43;;
7383;SDS011;3733;47.994;8.820;2023-10-31T11:45:13;3.83;;;1.50;;
7383;SDS011;3733;47.994;8.820;2023-10-31T11:47:55;1.83;;;1.53;;
7383;SDS011;3733;47.994;8.820;2023-10-31T11:50:21;3.30;;;1.80;;
7383;SDS011;3733;47.994;8.820;2023-10-31T11:55:29;4.90;;;1.53;;
7383;SDS011;3733;47.994;8.820;2023-10-31T11:58:12;4.40;;;2.13;;
7383;SDS011;3733;47.994;8.820;2023-10-31T12:01:06;1.47;;;1.37;;
7383;SDS011;3733;47.994;8.820;2023-10-31T12:06:04;4.40;;;1.40;;
7383;SDS011;3733;47.994;8.820;2023-10-31T12:08:37;2.70;;;0.90;;
7383;SDS011;3733;47.994;8.820;2023-10-31T12:14:00;1.90;;;1.10;;
7383;SDS011;3733;47.994;8.820;2023-10-31T12:16:30;1.03;;;1.00;;
7383;SDS011;3733;47.994;8.820;2023-10-31T12:19:04;2.40;;;0.97;;
7383;SDS011;3733;47.994;8.820;2023-10-31T12:21:37;3.43;;;1.73;;
7383;SDS011;3733;47.994;8.820;2023-10-31T12:24:04;3.03;;;1.20;;
7383;SDS011;3733;47.994;8.820;2023-10-31T12:26:34;4.70;;;1.50;;
7383;SDS011;3733;47.994;8.820;2023-10-31T12:29:33;1.20;;;1.10;;
7383;SDS011;3733;47.994;8.820;2023-10-31T12:31:52;2.13;;;1.50;;
7383;SDS011;3733;47.994;8.820;2023-10-31T12:34:19;3.20;;;1.30;;
7383;SDS011;3733;47.994;8.820;2023-10-31T12:36:46;1.73;;;1.23;;
7383;SDS011;3733;47.994;8.820;2023-10-31T12:39:14;3.53;;;1.70;;
7383;SDS011;3733;47.994;8.820;2023-10-31T12:41:41;1.60;;;1.50;;
7383;SDS011;3733;47.994;8.820;2023-10-31T12:44:07;1.87;;;1.03;;
7383;SDS011;3733;47.994;8.820;2023-10-31T12:46:38;2.90;;;2.03;;
7383;SDS011;3733;47.994;8.820;2023-10-31T12:49:04;2.60;;;1.00;;
7383;SDS011;3733;47.994;8.820;2023-10-31T12:51:35;2.43;;;1.70;;
7383;SDS011;3733;47.994;8.820;2023-10-31T12:54:01;1.40;;;1.30;;
7383;SDS011;3733;47.994;8.820;2023-10-31T12:56:39;6.57;;;1.70;;
7383;SDS011;3733;47.994;8.820;2023-10-31T12:59:07;1.83;;;1.50;;
7383;SDS011;3733;47.994;8.820;2023-10-31T13:01:36;1.40;;;1.20;;
7383;SDS011;3733;47.994;8.820;2023-10-31T13:04:02;6.17;;;1.30;;
7383;SDS011;3733;47.994;8.820;2023-10-31T13:06:29;5.30;;;1.30;;
7383;SDS011;3733;47.994;8.820;2023-10-31T13:08:55;1.43;;;1.20;;
7383;SDS011;3733;47.994;8.820;2023-10-31T13:11:22;5.67;;;1.20;;
7383;SDS011;3733;47.994;8.820;2023-10-31T13:13:51;1.40;;;1.30;;
7383;SDS011;3733;47.994;8.820;2023-10-31T13:16:18;2.27;;;1.20;;
7383;SDS011;3733;47.994;8.820;2023-10-31T13:18:44;2.07;;;1.20;;
7383;SDS011;3733;47.994;8.820;2023-10-31T13:21:09;1.40;;;1.30;;
7383;SDS011;3733;47.994;8.820;2023-10-31T13:23:36;1.80;;;1.37;;
7383;SDS011;3733;47.994;8.820;2023-10-31T13:26:03;5.17;;;1.43;;
7383;SDS011;3733;47.994;8.820;2023-10-31T13:28:29;3.03;;;1.50;;
7383;SDS011;3733;47.994;8.820;2023-10-31T13:30:57;1.83;;;1.50;;
7383;SDS011;3733;47.994;8.820;2023-10-31T13:33:23;1.47;;;1.37;;
7383;SDS011;3733;47.994;8.820;2023-10-31T13:35:48;1.30;;;1.20;;
7383;SDS011;3733;47.994;8.820;2023-10-31T13:38:14;1.90;;;1.20;;
7383;SDS011;3733;47.994;8.820;2023-10-31T13:40:40;1.73;;;1.20;;
7383;SDS011;3733;47.994;8.820;2023-10-31T13:43:06;3.20;;;1.73;;
7383;SDS011;3733;47.994;8.820;2023-10-31T13:45:31;2.13;;;1.30;;
7383;SDS011;3733;47.994;8.820;2023-10-31T13:47:58;2.73;;;1.47;;
7383;SDS011;3733;47.994;8.820;2023-10-31T13:50:24;2.90;;;2.07;;
7383;SDS011;3733;47.994;8.820;2023-10-31T13:52:50;2.87;;;1.80;;
7383;SDS011;3733;47.994;8.820;2023-10-31T13:55:17;2.00;;;1.80;;
7383;SDS011;3733;47.994;8.820;2023-10-31T13:57:43;3.80;;;2.20;;
7383;SDS011;3733;47.994;8.820;2023-10-31T14:00:09;3.93;;;3.03;;
7383;SDS011;3733;47.994;8.820;2023-10-31T14:02:35;3.30;;;2.70;;
7383;SDS011;3733;47.994;8.820;2023-10-31T14:05:01;5.53;;;3.20;;
7383;SDS011;3733;47.994;8.820;2023-10-31T14:07:27;5.53;;;3.10;;
7383;SDS011;3733;47.994;8.820;2023-10-31T14:09:53;4.27;;;3.10;;
7383;SDS011;3733;47.994;8.820;2023-10-31T14:12:21;3.90;;;2.93;;
7383;SDS011;3733;47.994;8.820;2023-10-31T14:14:47;6.27;;;3.37;;
7383;SDS011;3733;47.994;8.820;2023-10-31T14:17:14;6.53;;;3.07;;
7383;SDS011;3733;47.994;8.820;2023-10-31T14:19:41;3.47;;;2.20;;
7383;SDS011;3733;47.994;8.820;2023-10-31T14:22:08;4.83;;;2.37;;
7383;SDS011;3733;47.994;8.820;2023-10-31T14:24:33;9.07;;;2.30;;
7383;SDS011;3733;47.994;8.820;2023-10-31T14:27:00;7.50;;;3.07;;
7383;SDS011;3733;47.994;8.820;2023-10-31T14:29:26;3.40;;;2.40;;
7383;SDS011;3733;47.994;8.820;2023-10-31T14:31:51;3.20;;;2.50;;
7383;SDS011;3733;47.994;8.820;2023-10-31T14:34:19;3.33;;;2.50;;
7383;SDS011;3733;47.994;8.820;2023-10-31T14:36:46;6.77;;;2.47;;
7383;SDS011;3733;47.994;8.820;2023-10-31T14:39:11;2.50;;;1.73;;
7383;SDS011;3733;47.994;8.820;2023-10-31T14:41:37;3.30;;;2.53;;
7383;SDS011;3733;47.994;8.820;2023-10-31T14:44:04;2.83;;;1.97;;
7383;SDS011;3733;47.994;8.820;2023-10-31T14:46:29;3.20;;;1.37;;
7383;SDS011;3733;47.994;8.820;2023-10-31T14:48:55;1.70;;;1.60;;
7383;SDS011;3733;47.994;8.820;2023-10-31T14:51:21;2.23;;;1.87;;
7383;SDS011;3733;47.994;8.820;2023-10-31T14:53:46;4.33;;;1.67;;
7383;SDS011;3733;47.994;8.820;2023-10-31T14:56:12;1.83;;;1.70;;
7383;SDS011;3733;47.994;8.820;2023-10-31T14:58:38;2.40;;;1.87;;
7383;SDS011;3733;47.994;8.820;2023-10-31T15:01:04;1.97;;;1.43;;
7383;SDS011;3733;47.994;8.820;2023-10-31T15:03:30;1.50;;;1.40;;
7383;SDS011;3733;47.994;8.820;2023-10-31T15:05:59;2.23;;;1.53;;
7383;SDS011;3733;47.994;8.820;2023-10-31T15:08:25;4.20;;;1.57;;
7383;SDS011;3733;47.994;8.820;2023-10-31T15:10:51;3.63;;;1.70;;
7383;SDS011;3733;47.994;8.820;2023-10-31T15:13:17;1.60;;;1.50;;
7383;SDS011;3733;47.994;8.820;2023-10-31T15:15:43;2.57;;;1.50;;
7383;SDS011;3733;47.994;8.820;2023-10-31T15:18:08;3.73;;;1.57;;
7383;SDS011;3733;47.994;8.820;2023-10-31T15:20:34;2.03;;;1.67;;
7383;SDS011;3733;47.994;8.820;2023-10-31T15:23:00;2.10;;;1.40;;
7383;SDS011;3733;47.994;8.820;2023-10-31T15:25:25;1.90;;;1.70;;
7383;SDS011;3733;47.994;8.820;2023-10-31T15:27:51;1.93;;;1.50;;
7383;SDS011;3733;47.994;8.820;2023-10-31T15:30:16;1.80;;;1.30;;